Temp: 4.3°C   Baro: 1017.2mb
  Wind: 0.0mph   Dir: NNW (342°)
  Rain: 0.0mm (0.0mm/hr)
  Solar: 0W/m2  Hum: 83%

Historic data

Bath Spa Weather Station Historical Data
Daily Summary for February 2, 2021 Units:  Metric    English   Both
Daily Weekly Monthly Yearly Custom
  High: Low: Average:
Temperature: 12.1 °C 1.7 °C 5.7 °C
Dew Point: 9.2 °C 1.2 °C 4.4 °C
Humidity: 95% 73% 89%
Wind Speed: 8.2km/h 0km/h 1.1km/h
Wind Gust: 12.9km/h - -
Wind- - NW
Pressure: 1001.9 hPa 997.9 hPa -
Precipitation: 0.25 mm    
Historical Graphs
 
 
Tabular Data for February 2, 2021
Time Temperature Dew Point Pressure Wind Wind Speed Wind Gust Humidity Rainfall Rate (Hourly) solar
00:04 4.3 °C 3.9 °C 997.9 hPa Calm   1.6 km/h 94% 0 mm 0 W/m2
00:09 4.3 °C 3.9 °C 998.2 hPa West 0.6 km/h 3.2 km/h 94% 0 mm 0 W/m2
00:14 4.3 °C 3.9 °C 997.9 hPa Calm   3.2 km/h 94% 0 mm 0 W/m2
00:19 4.2 °C 3.7 °C 997.9 hPa Calm   1.6 km/h 94% 0 mm 0 W/m2
00:24 4.2 °C 3.7 °C 998.2 hPa West 0.3 km/h 3.2 km/h 94% 0 mm 0 W/m2
00:29 4.1 °C 3.7 °C 998.2 hPa Calm     94% 0 mm 0 W/m2
00:34 4.1 °C 3.7 °C 998.2 hPa Calm     94% 0 mm 0 W/m2
00:39 3.9 °C 3.5 °C 998.2 hPa Calm   1.6 km/h 94% 0 mm 0 W/m2
00:44 3.9 °C 3.5 °C 998.2 hPa West 0.3 km/h 1.6 km/h 94% 0 mm 0 W/m2
00:49 3.8 °C 3.4 °C 998.2 hPa West 1.6 km/h 3.2 km/h 94% 0 mm 0 W/m2
00:54 3.8 °C 3.4 °C 998.2 hPa West 1.1 km/h 3.2 km/h 94% 0 mm 0 W/m2
00:59 3.8 °C 3.4 °C 998.2 hPa West 2.4 km/h 4.8 km/h 94% 0 mm 0 W/m2
01:04 3.9 °C 3.5 °C 998.2 hPa West 2.6 km/h 3.2 km/h 94% 0 mm 0 W/m2
01:09 3.9 °C 3.5 °C 998.2 hPa Calm   3.2 km/h 94% 0 mm 0 W/m2
01:14 3.8 °C 3.4 °C 998.2 hPa Calm     94% 0 mm 0 W/m2
01:19 3.7 °C 3.3 °C 998.2 hPa Calm     94% 0 mm 0 W/m2
01:24 3.6 °C 3.2 °C 998.5 hPa Calm     94% 0 mm 0 W/m2
01:29 3.3 °C 2.9 °C 998.5 hPa West 0.3 km/h 1.6 km/h 94% 0 mm 0 W/m2
01:34 3.3 °C 2.9 °C 998.5 hPa Calm   1.6 km/h 94% 0 mm 0 W/m2
01:39 3.3 °C 2.8 °C 998.2 hPa Calm     94% 0 mm 0 W/m2
01:44 3.2 °C 2.8 °C 998.2 hPa Calm     94% 0 mm 0 W/m2
01:49 3.2 °C 2.8 °C 998.2 hPa Calm     94% 0 mm 0 W/m2
01:54 3.1 °C 2.7 °C 998.5 hPa Calm     94% 0 mm 0 W/m2
01:58 3 °C 2.6 °C 998.5 hPa Calm     94% 0 mm 0 W/m2
02:04 2.9 °C 2.5 °C 998.2 hPa Calm     94% 0 mm 0 W/m2
02:09 2.9 °C 2.5 °C 998.2 hPa Calm     94% 0 mm 0 W/m2
02:14 2.9 °C 2.5 °C 998.2 hPa Calm     94% 0 mm 0 W/m2
02:19 2.9 °C 2.5 °C 998.2 hPa Calm     94% 0 mm 0 W/m2
02:24 2.9 °C 2.5 °C 998.2 hPa West 2.1 km/h 4.8 km/h 94% 0 mm 0 W/m2
02:29 2.8 °C 2.4 °C 998.2 hPa West 2.7 km/h 4.8 km/h 94% 0 mm 0 W/m2
02:33 2.9 °C 2.5 °C 998.2 hPa West 3.5 km/h 4.8 km/h 94% 0 mm 0 W/m2
02:39 3 °C 2.6 °C 998.2 hPa West 0.6 km/h 4.8 km/h 94% 0 mm 0 W/m2
02:44 2.9 °C 2.5 °C 998.2 hPa West 0.3 km/h 1.6 km/h 94% 0 mm 0 W/m2
02:49 2.9 °C 2.5 °C 998.2 hPa West 0.3 km/h 4.8 km/h 94% 0 mm 0 W/m2
02:54 2.9 °C 2.5 °C 998.2 hPa Calm   1.6 km/h 94% 0 mm 0 W/m2
02:59 2.8 °C 2.4 °C 998.2 hPa Calm     94% 0 mm 0 W/m2
03:04 2.8 °C 2.4 °C 998.2 hPa Calm     94% 0.25 mm 0 W/m2
03:09 2.8 °C 2.4 °C 998.2 hPa Calm     94% 0.25 mm 0 W/m2
03:14 2.8 °C 2.4 °C 998.2 hPa West 0.3 km/h 1.6 km/h 94% 0.25 mm 0 W/m2
03:19 2.8 °C 2.4 °C 998.2 hPa West 0.8 km/h 1.6 km/h 94% 0.25 mm 0 W/m2
03:24 2.8 °C 2.4 °C 998.2 hPa Calm   1.6 km/h 94% 0.25 mm 0 W/m2
03:29 2.8 °C 2.4 °C 998.5 hPa Calm     94% 0.25 mm 0 W/m2
03:34 2.7 °C 2.3 °C 998.5 hPa Calm     94% 0.25 mm 0 W/m2
03:39 2.7 °C 2.4 °C 998.5 hPa Calm     95% 0.25 mm 0 W/m2
03:44 2.7 °C 2.4 °C 998.5 hPa West 0.8 km/h 4.8 km/h 95% 0.25 mm 0 W/m2
03:49 2.7 °C 2.4 °C 998.5 hPa West 0.3 km/h 1.6 km/h 94.8% 0.25 mm 0 W/m2
03:54 2.7 °C 2.4 °C 998.5 hPa Calm     95% 0.25 mm 0 W/m2
03:59 2.6 °C 2.4 °C 998.5 hPa Calm     95% 0.25 mm 0 W/m2
04:04 2.6 °C 2.3 °C 998.5 hPa West 0.3 km/h 3.2 km/h 94.2% 0.25 mm 0 W/m2
04:09 2.6 °C 2.2 °C 998.5 hPa Calm     94% 0 mm 0 W/m2
04:14 2.4 °C 2.1 °C 998.5 hPa Calm   1.6 km/h 94% 0 mm 0 W/m2
04:19 2.4 °C 2.2 °C 998.5 hPa Calm   1.6 km/h 94.8% 0 mm 0 W/m2
04:24 2.4 °C 2.2 °C 998.5 hPa Calm     95% 0 mm 0 W/m2
04:29 2.4 °C 2.2 °C 998.5 hPa Calm   1.6 km/h 95% 0 mm 0 W/m2
04:34 2.4 °C 2.2 °C 998.5 hPa Calm     95% 0 mm 0 W/m2
04:38 2.4 °C 2.2 °C 998.5 hPa Calm     95% 0 mm 0 W/m2
04:44 2.3 °C 2.1 °C 998.5 hPa Calm     95% 0 mm 0 W/m2
04:49 2.3 °C 2.1 °C 998.9 hPa Calm     95% 0 mm 0 W/m2
04:54 2.3 °C 2.1 °C 998.9 hPa Calm     95% 0 mm 0 W/m2
04:59 2.2 °C 2 °C 998.9 hPa Calm     95% 0 mm 0 W/m2
05:04 2.2 °C 1.9 °C 998.9 hPa Calm     95% 0 mm 0 W/m2
05:08 2.1 °C 1.9 °C 998.9 hPa Calm     95% 0 mm 0 W/m2
05:14 2.1 °C 1.9 °C 998.9 hPa Calm     95% 0 mm 0 W/m2
05:19 2.1 °C 1.9 °C 998.9 hPa Calm     95% 0 mm 0 W/m2
05:24 2.1 °C 1.8 °C 998.9 hPa Calm     95% 0 mm 0 W/m2
05:29 2.1 °C 1.9 °C 998.9 hPa Calm     95% 0 mm 0 W/m2
05:34 2.1 °C 1.9 °C 999.2 hPa Calm     95% 0 mm 0 W/m2
05:39 2 °C 1.8 °C 999.2 hPa West 0.6 km/h 3.2 km/h 95% 0 mm 0 W/m2
05:44 1.9 °C 1.7 °C 999.2 hPa West 1.4 km/h 3.2 km/h 95% 0 mm 0 W/m2
05:49 1.9 °C 1.7 °C 999.2 hPa Calm   3.2 km/h 95% 0 mm 0 W/m2
05:54 1.9 °C 1.7 °C 999.2 hPa Calm   1.6 km/h 95% 0 mm 0 W/m2
05:59 1.8 °C 1.6 °C 999.2 hPa Calm     95% 0 mm 0 W/m2
06:04 1.8 °C 1.6 °C 999.2 hPa Calm     95% 0 mm 0 W/m2
06:09 1.7 °C 1.6 °C 999.2 hPa Calm     95% 0 mm 0 W/m2
06:14 1.7 °C 1.5 °C 999.2 hPa Calm     95% 0 mm 0 W/m2
06:19 1.8 °C 1.6 °C 999.2 hPa West 0.6 km/h 3.2 km/h 95% 0 mm 0 W/m2
06:24 1.8 °C 1.6 °C 999.2 hPa West 1.3 km/h 4.8 km/h 95% 0 mm 0 W/m2
06:29 1.8 °C 1.6 °C 999.2 hPa Calm     95% 0 mm 0 W/m2
06:34 1.8 °C 1.6 °C 999.2 hPa Calm   1.6 km/h 95% 0 mm 0 W/m2
06:39 1.8 °C 1.6 °C 999.2 hPa Calm     95% 0 mm 0 W/m2
06:44 1.8 °C 1.6 °C 999.2 hPa Calm     95% 0 mm 0 W/m2
06:49 1.8 °C 1.6 °C 999.2 hPa Calm     95% 0 mm 0 W/m2
06:54 1.8 °C 1.6 °C 999.2 hPa West 0.6 km/h 3.2 km/h 95% 0 mm 0 W/m2
06:59 1.8 °C 1.6 °C 999.2 hPa Calm   1.6 km/h 95% 0 mm 0 W/m2
07:04 1.7 °C 1.5 °C 999.2 hPa Calm     95% 0 mm 0 W/m2
07:09 1.7 °C 1.5 °C 999.2 hPa Calm     95% 0 mm 5 W/m2
07:14 1.7 °C 1.5 °C 999.2 hPa Calm     95% 0 mm 7 W/m2
07:19 1.7 °C 1.6 °C 999.2 hPa Calm     95% 0 mm 9 W/m2
07:24 1.7 °C 1.5 °C 999.2 hPa Calm     95% 0 mm 12 W/m2
07:29 1.8 °C 1.7 °C 999.2 hPa Calm     95% 0 mm 14 W/m2
07:34 2 °C 1.8 °C 999.2 hPa Calm     95% 0 mm 16 W/m2
07:39 2.3 °C 2.1 °C 999.5 hPa Calm     95% 0 mm 16 W/m2
07:44 2.3 °C 2.2 °C 999.5 hPa Calm     95% 0 mm 18 W/m2
07:49 2.5 °C 2.3 °C 999.5 hPa Calm     95% 0 mm 19 W/m2
07:54 2.8 °C 2.6 °C 999.5 hPa Calm     95% 0 mm 21 W/m2
07:59 2.9 °C 2.7 °C 999.5 hPa Calm   1.6 km/h 95% 0 mm 23 W/m2
08:04 2.7 °C 2.5 °C 999.5 hPa Calm     95% 0 mm 26 W/m2
08:09 2.9 °C 2.7 °C 999.5 hPa Calm     95% 0 mm 32 W/m2
08:14 3.2 °C 2.9 °C 999.5 hPa Calm     95% 0 mm 35 W/m2
08:19 3.6 °C 3.4 °C 999.5 hPa Calm   1.6 km/h 95% 0 mm 39 W/m2
08:24 3.7 °C 3.5 °C 999.5 hPa Calm   1.6 km/h 95% 0 mm 42 W/m2
08:29 3.7 °C 3.5 °C 999.5 hPa Calm     95% 0 mm 44 W/m2
08:34 3.7 °C 3.4 °C 999.5 hPa Calm     95% 0 mm 58 W/m2
08:39 3.7 °C 3.5 °C 999.5 hPa Calm     95% 0 mm 69 W/m2
08:49 3.9 °C 3.8 °C 999.5 hPa Calm     95% 0 mm 102 W/m2
08:54 4.1 °C 3.9 °C 999.5 hPa Calm     95% 0 mm 123 W/m2
08:59 4.3 °C 4.1 °C 999.5 hPa Calm     95% 0 mm 144 W/m2
09:04 4.4 °C 4.2 °C 999.5 hPa Calm     95% 0 mm 158 W/m2
09:09 4.6 °C 4.4 °C 999.5 hPa Calm     95% 0 mm 171 W/m2
09:14 5.3 °C 5.2 °C 999.5 hPa Calm     95% 0 mm 163 W/m2
09:19 5.6 °C 5.4 °C 999.5 hPa Calm     95% 0 mm 149 W/m2
09:24 5.6 °C 5.3 °C 999.5 hPa Calm     95% 0 mm 137 W/m2
09:29 5.4 °C 5.2 °C 999.5 hPa Calm     95% 0 mm 113 W/m2
09:34 5.5 °C 5.3 °C 999.5 hPa Calm     95% 0 mm 100 W/m2
09:39 5.9 °C 5.7 °C 999.5 hPa Calm     95% 0 mm 127 W/m2
09:44 6.6 °C 6.3 °C 999.5 hPa Calm     95% 0 mm 144 W/m2
09:48 6.9 °C 6.7 °C 999.5 hPa NNW 0.5 km/h 3.2 km/h 95% 0 mm 139 W/m2
09:54 7.4 °C 7.1 °C 999.5 hPa NNW 0.3 km/h 3.2 km/h 95% 0 mm 158 W/m2
09:59 8 °C 7.7 °C 999.5 hPa Calm   1.6 km/h 94.4% 0 mm 316 W/m2
10:04 8.4 °C 8 °C 999.5 hPa Calm     93.8% 0 mm 315 W/m2
10:09 8.6 °C 7.8 °C 999.5 hPa Calm   1.6 km/h 92.2% 0 mm 313 W/m2
10:14 8.1 °C 7.1 °C 999.5 hPa Calm   1.6 km/h 90.2% 0 mm 308 W/m2
10:19 8.3 °C 7.2 °C 999.9 hPa Calm   1.6 km/h 89.8% 0 mm 322 W/m2
10:24 8.7 °C 7.4 °C 999.9 hPa Calm     89% 0 mm 311 W/m2
10:29 8.8 °C 7.6 °C 999.5 hPa Calm     88.4% 0 mm 316 W/m2
10:34 8.9 °C 7.3 °C 999.9 hPa Calm     87% 0 mm 272 W/m2
10:39 9.1 °C 7.4 °C 999.9 hPa NNW 0.8 km/h 3.2 km/h 86.5% 0 mm 350 W/m2
10:44 9.7 °C 8.1 °C 999.5 hPa Calm     86.8% 0 mm 369 W/m2
10:49 10.8 °C 9 °C 999.5 hPa Calm   1.6 km/h 85.8% 0 mm 396 W/m2
10:54 10.9 °C 8.5 °C 999.5 hPa NNW 0.6 km/h 4.8 km/h 82.2% 0 mm 385 W/m2
10:59 10.9 °C 8.4 °C 999.5 hPa Calm     82% 0 mm 381 W/m2
11:04 11.8 °C 9.2 °C 999.5 hPa Calm     81.4% 0 mm 364 W/m2
11:09 11.3 °C 8.3 °C 999.5 hPa NNW 0.3 km/h 1.6 km/h 79% 0 mm 357 W/m2
11:13 10.9 °C 8.1 °C 999.5 hPa NNW 4 km/h 6.4 km/h 80% 0 mm 318 W/m2
11:19 10.6 °C 8 °C 999.9 hPa NNW 2.6 km/h 6.4 km/h 81% 0 mm 338 W/m2
11:24 10.6 °C 8 °C 999.9 hPa NNW 4.7 km/h 6.4 km/h 81.6% 0 mm 341 W/m2
11:29 10.4 °C 7.9 °C 999.5 hPa NNW 3.4 km/h 8 km/h 82% 0 mm 345 W/m2
11:34 10.4 °C 7.9 °C 999.5 hPa NNW 4.8 km/h 9.7 km/h 81.6% 0 mm 309 W/m2
11:39 10.3 °C 7.7 °C 999.5 hPa NNW 5.8 km/h 11.3 km/h 80.6% 0 mm 276 W/m2
11:44 10.3 °C 7.6 °C 999.5 hPa NNW 5 km/h 8 km/h 80.6% 0 mm 236 W/m2
11:49 10.2 °C 7.4 °C 999.5 hPa NNW 6 km/h 9.7 km/h 80.3% 0 mm 225 W/m2
11:54 10.2 °C 7.6 °C 999.5 hPa NNW 5.1 km/h 9.7 km/h 81% 0 mm 360 W/m2
11:59 10.2 °C 7.6 °C 999.5 hPa NNW 7.6 km/h 9.7 km/h 80.8% 0 mm 415 W/m2
12:04 10.5 °C 7.7 °C 999.5 hPa NNW 3.2 km/h 11.3 km/h 80% 0 mm 443 W/m2
12:09 10.9 °C 7.8 °C 999.5 hPa NNW 5 km/h 11.3 km/h 78.8% 0 mm 459 W/m2
12:14 10.9 °C 7.6 °C 999.5 hPa NNW 6 km/h 9.7 km/h 77.2% 0 mm 439 W/m2
12:19 11.1 °C 7.7 °C 999.5 hPa NNW 3.4 km/h 9.7 km/h 76.8% 0 mm 406 W/m2
12:24 11 °C 7.5 °C 999.5 hPa NNW 3.7 km/h 9.7 km/h 76.4% 0 mm 169 W/m2
12:29 10.8 °C 7.2 °C 999.5 hPa NNW 4 km/h 6.4 km/h 76% 0 mm 156 W/m2
12:34 10.7 °C 7.2 °C 999.5 hPa NNW 6.4 km/h 9.7 km/h 76.8% 0 mm 211 W/m2
12:39 10.4 °C 6.8 °C 999.5 hPa NNW 3.2 km/h 8 km/h 76.3% 0 mm 248 W/m2
12:43 10.7 °C 7.1 °C 999.5 hPa NNW 2.4 km/h 6.4 km/h 76% 0 mm 295 W/m2
12:49 11.1 °C 7.5 °C 999.5 hPa NNW 4.7 km/h 9.7 km/h 76.4% 0 mm 320 W/m2
12:54 10.9 °C 7.2 °C 999.5 hPa NNW 2.1 km/h 9.7 km/h 75.6% 0 mm 332 W/m2
12:59 11.2 °C 7.4 °C 999.5 hPa NNW 4.5 km/h 8 km/h 75.6% 0 mm 359 W/m2
13:04 11.3 °C 7.6 °C 999.5 hPa NNW 2.7 km/h 9.7 km/h 75.2% 0 mm 394 W/m2
13:09 11.2 °C 7.6 °C 999.5 hPa NNW 4.3 km/h 9.7 km/h 75.8% 0 mm 396 W/m2
13:14 11.3 °C 7.4 °C 999.5 hPa NNW 3.9 km/h 9.7 km/h 74.6% 0 mm 381 W/m2
13:19 11.4 °C 7.2 °C 999.5 hPa NW 8.2 km/h 12.9 km/h 73% 0 mm 369 W/m2
13:24 11.2 °C 7.3 °C 999.2 hPa NW 3.7 km/h 12.9 km/h 74.6% 0 mm 373 W/m2
13:29 11.4 °C 7.4 °C 999.2 hPa NW 5 km/h 8 km/h 74% 0 mm 374 W/m2
13:34 11.7 °C 7.6 °C 999.2 hPa NW 5 km/h 9.7 km/h 73.6% 0 mm 403 W/m2
13:39 11.5 °C 7.3 °C 999.2 hPa NW 7.7 km/h 12.9 km/h 73% 0 mm 403 W/m2
13:44 11.1 °C 7.1 °C 999.2 hPa NW 5.3 km/h 9.7 km/h 74.2% 0 mm 100 W/m2
13:49 10.9 °C 7.1 °C 999.2 hPa NW 2.4 km/h 8 km/h 75% 0 mm 371 W/m2
13:54 11.3 °C 7.6 °C 999.2 hPa NW 2.7 km/h 8 km/h 75.3% 0 mm 403 W/m2
13:59 11.8 °C 7.9 °C 999.2 hPa NW 3.1 km/h 6.4 km/h 74.6% 0 mm 431 W/m2
14:04 11.6 °C 7.6 °C 999.2 hPa NW 5.3 km/h 12.9 km/h 74% 0 mm 459 W/m2
14:09 11.4 °C 7.7 °C 999.2 hPa NW 1.3 km/h 8 km/h 75% 0 mm 417 W/m2
14:14 12.1 °C 8.1 °C 999.2 hPa NW 3.5 km/h 8 km/h 74% 0 mm 392 W/m2
14:19 11.9 °C 7.8 °C 999.2 hPa NW 7.2 km/h 11.3 km/h 73.4% 0 mm 392 W/m2
14:24 11.8 °C 7.7 °C 999.2 hPa NW 5.8 km/h 11.3 km/h 73.2% 0 mm 350 W/m2
14:29 11.8 °C 7.6 °C 999.2 hPa NW 7.1 km/h 12.9 km/h 73% 0 mm 315 W/m2
14:34 11.7 °C 7.9 °C 999.2 hPa NW 4 km/h 8 km/h 74.8% 0 mm 258 W/m2
14:39 11.7 °C 8 °C 999.2 hPa NW 4.3 km/h 11.3 km/h 75.8% 0 mm 227 W/m2
14:44 11.5 °C 7.9 °C 999.2 hPa NW 4.5 km/h 9.7 km/h 75.8% 0 mm 216 W/m2
14:49 11.7 °C 8.1 °C 999.2 hPa NW 4 km/h 9.7 km/h 75.8% 0 mm 202 W/m2
14:54 11.2 °C 7.6 °C 999.2 hPa NW 7.1 km/h 9.7 km/h 75.8% 0 mm 123 W/m2
14:59 10.9 °C 7.4 °C 999.2 hPa NW 5.6 km/h 9.7 km/h 76.5% 0 mm 47 W/m2
15:04 10.8 °C 7.5 °C 999.2 hPa NW 4.7 km/h 9.7 km/h 77.4% 0 mm 83 W/m2
15:09 10.6 °C 7.3 °C 999.2 hPa NW 7.7 km/h 12.9 km/h 77.8% 0 mm 107 W/m2
15:14 10.4 °C 7.3 °C 999.2 hPa NW 4.3 km/h 9.7 km/h 78.8% 0 mm 151 W/m2
15:19 10.4 °C 7.4 °C 999.2 hPa NW 5.8 km/h 11.3 km/h 79% 0 mm 144 W/m2
15:24 10.4 °C 7.4 °C 999.2 hPa NW 3.9 km/h 11.3 km/h 79% 0 mm 128 W/m2
15:29 10.6 °C 7.6 °C 999.2 hPa NW 3.9 km/h 8 km/h 79% 0 mm 113 W/m2
15:34 10.6 °C 7.5 °C 999.2 hPa NW 4.5 km/h 9.7 km/h 78.4% 0 mm 97 W/m2
15:39 10.7 °C 7.4 °C 999.2 hPa NW 3.4 km/h 8 km/h 78% 0 mm 95 W/m2
15:44 10.6 °C 7.3 °C 999.5 hPa NW 5.1 km/h 9.7 km/h 77.4% 0 mm 97 W/m2
15:49 10.4 °C 7 °C 999.5 hPa NW 4.5 km/h 8 km/h 76.8% 0 mm 93 W/m2
15:54 10.5 °C 7 °C 999.5 hPa NW 1.3 km/h 6.4 km/h 76.6% 0 mm 79 W/m2
15:59 10.7 °C 7.2 °C 999.5 hPa NW 2.6 km/h 6.4 km/h 76.2% 0 mm 65 W/m2
16:04 10.7 °C 7.1 °C 999.5 hPa NW 1 km/h 6.4 km/h 76% 0 mm 54 W/m2
16:09 10.7 °C 7.1 °C 999.5 hPa NW 2.9 km/h 6.4 km/h 76% 0 mm 42 W/m2
16:14 10.6 °C 7 °C 999.5 hPa NW 3.1 km/h 6.4 km/h 76.2% 0 mm 32 W/m2
16:19 10.4 °C 7 °C 999.5 hPa NW 3.2 km/h 4.8 km/h 76.8% 0 mm 28 W/m2
16:24 10.3 °C 6.8 °C 999.5 hPa NW 3.2 km/h 6.4 km/h 76.3% 0 mm 25 W/m2
16:29 10.2 °C 6.8 °C 999.5 hPa NW 4 km/h 6.4 km/h 77% 0 mm 18 W/m2
16:34 10 °C 6.6 °C 999.5 hPa NW 2.4 km/h 4.8 km/h 77% 0 mm 12 W/m2
16:39 9.8 °C 6.6 °C 999.5 hPa NW 2.1 km/h 4.8 km/h 78% 0 mm 7 W/m2
16:44 9.7 °C 6.5 °C 999.5 hPa Calm   1.6 km/h 78.2% 0 mm 5 W/m2
16:49 9.5 °C 6.5 °C 999.5 hPa Calm     79% 0 mm 0 W/m2
16:54 9.4 °C 6.4 °C 999.5 hPa Calm     79.2% 0 mm 0 W/m2
16:59 9.3 °C 6.4 °C 999.5 hPa Calm     80% 0 mm 0 W/m2
17:04 9.2 °C 6.4 °C 999.9 hPa Calm     80.6% 0 mm 0 W/m2
17:09 8.8 °C 6.2 °C 999.9 hPa Calm     81.2% 0 mm 0 W/m2
17:14 8.4 °C 6.1 °C 999.9 hPa Calm     82% 0 mm 0 W/m2
17:19 8.3 °C 6.1 °C 999.9 hPa Calm     83% 0 mm 0 W/m2
17:24 8.2 °C 6 °C 999.9 hPa Calm     83.8% 0 mm 0 W/m2
17:28 8.1 °C 6 °C 999.9 hPa Calm     84% 0 mm 0 W/m2
17:34 7.6 °C 5.7 °C 1000.2 hPa Calm     84.6% 0 mm 0 W/m2
17:39 7.2 °C 5.3 °C 1000.2 hPa Calm     85% 0 mm 0 W/m2
17:44 7 °C 5.3 °C 1000.2 hPa NW 1.3 km/h 4.8 km/h 86% 0 mm 0 W/m2
17:49 6.8 °C 5.2 °C 1000.2 hPa NW 3.5 km/h 4.8 km/h 86% 0 mm 0 W/m2
17:54 6.7 °C 5.1 °C 1000.2 hPa NW 3.2 km/h 4.8 km/h 86.6% 0 mm 0 W/m2
17:59 6.5 °C 5 °C 1000.2 hPa NW 0.3 km/h 3.2 km/h 87% 0 mm 0 W/m2
18:04 6.5 °C 5.1 °C 1000.2 hPa Calm   1.6 km/h 87.4% 0 mm 0 W/m2
18:09 6.5 °C 5.1 °C 1000.2 hPa Calm     87.6% 0 mm 0 W/m2
18:14 6.2 °C 4.7 °C 1000.6 hPa NW 0.6 km/h 1.6 km/h 87.4% 0 mm 0 W/m2
18:19 5.8 °C 4.5 °C 1000.6 hPa NW 0.6 km/h 3.2 km/h 87.6% 0 mm 0 W/m2
18:24 5.8 °C 4.5 °C 1000.6 hPa NW 0.6 km/h 3.2 km/h 88% 0 mm 0 W/m2
18:29 5.8 °C 4.6 °C 1000.6 hPa Calm     88% 0 mm 0 W/m2
18:34 5.8 °C 4.4 °C 1000.9 hPa Calm     88% 0 mm 0 W/m2
18:39 5.6 °C 4.3 °C 1000.9 hPa Calm     88% 0 mm 0 W/m2
18:44 5.5 °C 4.3 °C 1000.9 hPa Calm     88.6% 0 mm 0 W/m2
18:49 5.5 °C 4.3 °C 1000.9 hPa Calm     89% 0 mm 0 W/m2
18:54 5.4 °C 4.3 °C 1000.9 hPa Calm     89% 0 mm 0 W/m2
18:59 5.4 °C 4.2 °C 1000.9 hPa Calm     89% 0 mm 0 W/m2
19:04 5.4 °C 4.2 °C 1000.9 hPa Calm     89% 0 mm 0 W/m2
19:09 5.3 °C 4.2 °C 1000.9 hPa Calm     89% 0 mm 0 W/m2
19:13 5.4 °C 4.3 °C 1000.9 hPa Calm     89.8% 0 mm 0 W/m2
19:19 5.3 °C 4.2 °C 1000.9 hPa Calm     89.4% 0 mm 0 W/m2
19:24 5.2 °C 4.1 °C 1000.9 hPa Calm     89.4% 0 mm 0 W/m2
19:29 5.1 °C 4.1 °C 1001.2 hPa Calm     90% 0 mm 0 W/m2
19:34 5.1 °C 4.1 °C 1000.9 hPa Calm     90% 0 mm 0 W/m2
19:39 4.9 °C 3.9 °C 1000.9 hPa Calm     90% 0 mm 0 W/m2
19:44 5.1 °C 4.1 °C 1001.2 hPa Calm     90% 0 mm 0 W/m2
19:49 5.3 °C 4.4 °C 1001.2 hPa Calm     90.8% 0 mm 0 W/m2
19:54 5.2 °C 4.2 °C 1001.2 hPa Calm     90.2% 0 mm 0 W/m2
19:59 4.8 °C 3.8 °C 1001.2 hPa Calm     90% 0 mm 0 W/m2
20:04 5 °C 4.1 °C 1001.2 hPa Calm     90.2% 0 mm 0 W/m2
20:09 5.2 °C 4.3 °C 1001.2 hPa Calm     91% 0 mm 0 W/m2
20:14 5.3 °C 4.4 °C 1001.2 hPa Calm     91% 0 mm 0 W/m2
20:19 5.3 °C 4.4 °C 1001.2 hPa Calm     91% 0 mm 0 W/m2
20:24 4.9 °C 3.9 °C 1001.2 hPa Calm     90% 0 mm 0 W/m2
20:29 4.4 °C 3.4 °C 1001.2 hPa Calm     90% 0 mm 0 W/m2
20:34 4.5 °C 3.7 °C 1001.2 hPa Calm     90.8% 0 mm 0 W/m2
20:39 4.7 °C 3.9 °C 1001.2 hPa Calm     91% 0 mm 0 W/m2
20:44 4.8 °C 4 °C 1001.2 hPa Calm     91% 0 mm 0 W/m2
20:49 4.7 °C 3.9 °C 1001.2 hPa Calm     91% 0 mm 0 W/m2
20:54 4.8 °C 3.9 °C 1001.2 hPa Calm     91% 0 mm 0 W/m2
20:59 4.7 °C 3.9 °C 1001.2 hPa Calm     91% 0 mm 0 W/m2
21:04 4.6 °C 3.8 °C 1001.6 hPa Calm     91% 0 mm 0 W/m2
21:09 4.2 °C 3.4 °C 1001.6 hPa Calm     91% 0 mm 0 W/m2
21:14 4.1 °C 3.3 °C 1001.6 hPa Calm     91% 0 mm 0 W/m2
21:19 3.9 °C 3.2 °C 1001.6 hPa Calm     91% 0 mm 0 W/m2
21:24 3.9 °C 3.1 °C 1001.6 hPa Calm     91% 0 mm 0 W/m2
21:29 3.7 °C 2.9 °C 1001.6 hPa Calm     91% 0 mm 0 W/m2
21:34 3.6 °C 2.7 °C 1001.6 hPa Calm     91% 0 mm 0 W/m2
21:39 3.4 °C 2.6 °C 1001.6 hPa Calm     91% 0 mm 0 W/m2
21:44 3.3 °C 2.6 °C 1001.6 hPa Calm   1.6 km/h 91% 0 mm 0 W/m2
21:49 3.3 °C 2.6 °C 1001.6 hPa Calm     91% 0 mm 0 W/m2
21:54 3.3 °C 2.5 °C 1001.6 hPa Calm     91% 0 mm 0 W/m2
21:59 3.3 °C 2.5 °C 1001.6 hPa Calm     91% 0 mm 0 W/m2
22:04 3.3 °C 2.5 °C 1001.6 hPa Calm     91% 0 mm 0 W/m2
22:09 3.2 °C 2.4 °C 1001.6 hPa Calm     91% 0 mm 0 W/m2
22:14 3.1 °C 2.3 °C 1001.6 hPa Calm     91% 0 mm 0 W/m2
22:19 2.9 °C 2.1 °C 1001.6 hPa Calm     91% 0 mm 0 W/m2
22:24 2.9 °C 2.1 °C 1001.6 hPa Calm     91.3% 0 mm 0 W/m2
22:29 2.9 °C 2.2 °C 1001.9 hPa Calm     92% 0 mm 0 W/m2
22:34 2.8 °C 2.1 °C 1001.9 hPa Calm     91.6% 0 mm 0 W/m2
22:39 2.8 °C 1.9 °C 1001.9 hPa Calm     91% 0 mm 0 W/m2
22:44 2.7 °C 1.9 °C 1001.9 hPa Calm     91.5% 0 mm 0 W/m2
22:49 2.7 °C 1.9 °C 1001.9 hPa Calm     92% 0 mm 0 W/m2
22:54 2.6 °C 1.9 °C 1001.6 hPa Calm     92% 0 mm 0 W/m2
22:59 2.6 °C 1.8 °C 1001.9 hPa Calm     92% 0 mm 0 W/m2
23:04 2.4 °C 1.7 °C 1001.9 hPa Calm     92% 0 mm 0 W/m2
23:09 2.3 °C 1.6 °C 1001.9 hPa Calm     92% 0 mm 0 W/m2
23:14 2.3 °C 1.6 °C 1001.9 hPa Calm     92% 0 mm 0 W/m2
23:19 2.3 °C 1.6 °C 1001.9 hPa Calm     92% 0 mm 0 W/m2
23:24 2.2 °C 1.5 °C 1001.9 hPa Calm     92% 0 mm 0 W/m2
23:29 2.1 °C 1.4 °C 1001.9 hPa Calm     92% 0 mm 0 W/m2
23:34 2.1 °C 1.4 °C 1001.9 hPa Calm     92% 0 mm 0 W/m2
23:39 2.1 °C 1.3 °C 1001.9 hPa Calm     92% 0 mm 0 W/m2
23:44 2.1 °C 1.4 °C 1001.9 hPa Calm     92% 0 mm 0 W/m2
23:49 2.1 °C 1.4 °C 1001.9 hPa Calm     92% 0 mm 0 W/m2
23:54 2.1 °C 1.3 °C 1001.9 hPa Calm     92% 0 mm 0 W/m2
23:59 1.9 °C 1.2 °C 1001.9 hPa Calm   1.6 km/h 92% 0 mm 0 W/m2
Bath Spa Weather
Compliments of Weather Underground - 2 mb